createdAt,value
2023-01-20T00:01:58.156Z,6.77
2023-01-20T00:04:24.617Z,6.00
2023-01-20T00:06:50.999Z,6.20
2023-01-20T00:09:18.222Z,6.27
2023-01-20T00:11:45.379Z,7.67
2023-01-20T00:14:11.978Z,6.63
2023-01-20T00:16:40.030Z,6.23
2023-01-20T00:19:06.565Z,9.23
2023-01-20T00:21:34.271Z,6.80
2023-01-20T00:24:00.721Z,5.33
2023-01-20T00:26:27.099Z,5.10
2023-01-20T00:28:55.033Z,5.40
2023-01-20T00:31:23.143Z,10.40
2023-01-20T00:33:52.238Z,5.30
2023-01-20T00:36:20.504Z,4.90
2023-01-20T00:38:47.194Z,6.07
2023-01-20T00:41:13.624Z,5.53
2023-01-20T00:43:40.729Z,5.60
2023-01-20T00:46:07.834Z,5.60
2023-01-20T00:48:34.751Z,4.87
2023-01-20T00:51:01.959Z,5.10
2023-01-20T00:53:28.589Z,5.27
2023-01-20T00:55:55.185Z,5.00
2023-01-20T00:58:21.581Z,5.33
2023-01-20T01:00:48.687Z,5.50
2023-01-20T01:03:15.314Z,5.17
2023-01-20T01:05:41.873Z,4.87
2023-01-20T01:08:09.041Z,4.87
2023-01-20T01:10:35.663Z,5.07
2023-01-20T01:13:03.511Z,5.07
2023-01-20T01:15:30.401Z,5.43
2023-01-20T01:17:58.265Z,5.43
2023-01-20T01:20:25.951Z,5.60
2023-01-20T01:22:52.405Z,4.90
2023-01-20T01:25:19.756Z,8.10
2023-01-20T01:27:46.870Z,5.10
2023-01-20T01:30:13.426Z,5.47
2023-01-20T01:32:40.114Z,5.30
2023-01-20T01:35:06.949Z,5.77
2023-01-20T01:37:33.309Z,5.97
2023-01-20T01:39:59.730Z,4.90
2023-01-20T01:42:27.017Z,6.37
2023-01-20T01:45:23.392Z,5.07
2023-01-20T01:47:54.634Z,5.33
2023-01-20T01:50:24.808Z,5.83
2023-01-20T01:52:53.903Z,4.40
2023-01-20T01:55:24.384Z,5.07
2023-01-20T01:57:52.196Z,6.67
2023-01-20T02:00:19.610Z,6.90
2023-01-20T02:02:46.417Z,4.57
2023-01-20T02:05:15.813Z,4.57
2023-01-20T02:07:45.126Z,5.10
2023-01-20T02:10:12.442Z,4.77
2023-01-20T02:12:40.596Z,4.93
2023-01-20T02:15:09.022Z,4.33
2023-01-20T02:17:44.748Z,4.87
2023-01-20T02:20:44.349Z,5.23
2023-01-20T02:23:19.437Z,5.40
2023-01-20T02:26:24.246Z,5.40
2023-01-20T02:29:16.602Z,6.67
2023-01-20T02:32:13.071Z,5.87
2023-01-20T02:34:45.708Z,5.60
2023-01-20T02:37:15.153Z,5.00
2023-01-20T02:39:48.593Z,4.70
2023-01-20T02:42:22.024Z,5.07
2023-01-20T02:44:53.838Z,4.77
2023-01-20T02:47:28.565Z,7.23
2023-01-20T02:49:59.486Z,6.13
2023-01-20T02:52:29.038Z,6.23
2023-01-20T02:54:59.329Z,5.63
2023-01-20T02:57:30.469Z,4.87
2023-01-20T03:00:01.391Z,5.17
2023-01-20T03:02:32.915Z,4.97
2023-01-20T03:05:04.363Z,4.67
2023-01-20T03:07:34.297Z,4.83
2023-01-20T03:10:04.485Z,5.40
2023-01-20T03:12:36.557Z,6.20
2023-01-20T03:15:03.770Z,4.30
2023-01-20T03:17:32.032Z,4.80
2023-01-20T03:19:58.558Z,4.80
2023-01-20T03:22:25.076Z,4.50
2023-01-20T03:24:52.309Z,7.57
2023-01-20T03:27:18.678Z,5.33
2023-01-20T03:29:45.129Z,4.53
2023-01-20T03:32:12.655Z,4.60
2023-01-20T03:34:42.577Z,4.97
2023-01-20T03:37:10.150Z,4.17
2023-01-20T03:39:39.118Z,4.63
2023-01-20T03:42:09.787Z,6.30
2023-01-20T03:45:00.608Z,4.97
2023-01-20T03:47:41.547Z,5.97
2023-01-20T03:50:19.777Z,5.37
2023-01-20T03:52:52.316Z,5.80
2023-01-20T03:55:24.263Z,5.37
2023-01-20T03:57:56.656Z,5.20
2023-01-20T04:00:26.120Z,5.97
2023-01-20T04:02:59.695Z,5.43
2023-01-20T04:05:27.793Z,5.33
2023-01-20T04:07:57.249Z,5.63
2023-01-20T04:10:26.728Z,6.77
2023-01-20T04:12:54.077Z,5.83
2023-01-20T04:15:22.055Z,6.33
2023-01-20T04:17:48.542Z,5.33
2023-01-20T04:20:15.845Z,7.00
2023-01-20T04:22:48.705Z,7.70
2023-01-20T04:25:21.955Z,6.13
2023-01-20T04:27:48.401Z,7.10
2023-01-20T04:30:15.167Z,7.27
2023-01-20T04:32:41.730Z,6.93
2023-01-20T04:35:11.031Z,7.70
2023-01-20T04:37:37.589Z,7.90
2023-01-20T04:40:07.866Z,7.97
2023-01-20T04:42:34.454Z,7.60
2023-01-20T04:45:00.901Z,7.40
2023-01-20T04:47:30.150Z,6.50
2023-01-20T04:49:56.740Z,6.97
2023-01-20T04:52:23.273Z,6.33
2023-01-20T04:54:49.677Z,7.50
2023-01-20T04:57:16.810Z,7.30
2023-01-20T04:59:43.295Z,7.40
2023-01-20T05:02:09.693Z,7.33
2023-01-20T05:04:37.223Z,6.07
2023-01-20T05:07:03.715Z,6.97
2023-01-20T05:09:30.169Z,10.73
2023-01-20T05:11:56.640Z,6.73
2023-01-20T05:14:23.665Z,7.13
2023-01-20T05:16:50.101Z,7.83
2023-01-20T05:19:16.817Z,9.53
2023-01-20T05:21:43.242Z,6.53
2023-01-20T05:24:09.722Z,6.73
2023-01-20T05:26:36.229Z,7.27
2023-01-20T05:29:02.726Z,6.17
2023-01-20T05:31:30.252Z,7.50
2023-01-20T05:33:56.810Z,6.50
2023-01-20T05:36:23.407Z,7.67
2023-01-20T05:38:49.811Z,8.47
2023-01-20T05:41:16.679Z,7.23
2023-01-20T05:43:43.045Z,7.03
2023-01-20T05:46:09.761Z,8.43
2023-01-20T05:48:36.923Z,9.73
2023-01-20T05:51:03.512Z,9.00
2023-01-20T05:53:30.041Z,8.43
2023-01-20T05:56:00.929Z,8.43
2023-01-20T05:58:28.105Z,8.00
2023-01-20T06:00:54.596Z,8.90
2023-01-20T06:03:21.068Z,9.03
2023-01-20T06:05:48.696Z,7.07
2023-01-20T06:08:15.148Z,7.50
2023-01-20T06:10:41.497Z,8.53
2023-01-20T06:13:09.777Z,8.60
2023-01-20T06:15:36.133Z,9.07
2023-01-20T06:18:02.633Z,9.20
2023-01-20T06:20:29.451Z,8.33
2023-01-20T06:22:56.557Z,8.10
2023-01-20T06:25:23.036Z,7.33
2023-01-20T06:27:49.399Z,7.63
2023-01-20T06:30:16.650Z,8.00
2023-01-20T06:32:45.344Z,12.13
2023-01-20T06:35:11.795Z,8.10
2023-01-20T06:37:38.238Z,10.50
2023-01-20T06:40:06.383Z,11.10
2023-01-20T06:42:57.213Z,10.13
2023-01-20T06:45:23.771Z,7.70
2023-01-20T06:47:50.418Z,9.77
2023-01-20T06:50:17.020Z,10.43
2023-01-20T06:52:43.557Z,7.20
2023-01-20T06:55:10.861Z,9.20
2023-01-20T06:57:37.379Z,8.07
2023-01-20T07:00:04.915Z,11.67
2023-01-20T07:02:31.498Z,14.33
2023-01-20T07:04:59.225Z,12.23
2023-01-20T07:07:26.278Z,11.07
2023-01-20T07:09:54.058Z,8.57
2023-01-20T07:12:21.206Z,9.30
2023-01-20T07:14:47.622Z,10.53
2023-01-20T07:17:14.111Z,10.30
2023-01-20T07:19:40.523Z,10.60
2023-01-20T07:22:07.037Z,9.67
2023-01-20T07:24:33.439Z,8.30
2023-01-20T07:26:59.991Z,9.67
2023-01-20T07:29:27.110Z,10.70
2023-01-20T07:31:53.570Z,11.33
2023-01-20T07:34:20.125Z,9.87
2023-01-20T07:36:46.509Z,10.27
2023-01-20T07:39:14.726Z,8.80
2023-01-20T07:41:42.968Z,9.33
2023-01-20T07:44:10.037Z,8.83
2023-01-20T07:46:37.067Z,9.60
2023-01-20T07:49:03.493Z,8.73
2023-01-20T07:51:29.923Z,9.00
2023-01-20T07:53:56.385Z,9.43
2023-01-20T07:56:24.190Z,8.97
2023-01-20T07:58:50.908Z,9.40
2023-01-20T08:01:20.411Z,8.77
2023-01-20T08:03:48.033Z,12.13
2023-01-20T08:06:16.424Z,10.57
2023-01-20T08:08:42.880Z,9.40
2023-01-20T08:11:11.324Z,9.33
2023-01-20T08:13:37.736Z,10.93
2023-01-20T08:16:06.820Z,9.53
2023-01-20T08:18:34.888Z,10.10
2023-01-20T08:21:05.668Z,9.27
2023-01-20T08:23:32.806Z,9.47
2023-01-20T08:26:01.293Z,11.83
2023-01-20T08:28:28.671Z,9.47
2023-01-20T08:30:55.640Z,11.27
2023-01-20T08:33:22.102Z,9.17
2023-01-20T08:35:48.538Z,9.67
2023-01-20T08:38:15.617Z,10.20
2023-01-20T08:40:42.016Z,10.03
2023-01-20T08:43:08.409Z,10.60
2023-01-20T08:45:35.227Z,13.63
2023-01-20T08:48:01.771Z,8.83
2023-01-20T08:50:28.313Z,9.03
2023-01-20T08:52:54.812Z,9.23
2023-01-20T08:55:21.934Z,9.07
2023-01-20T08:57:48.433Z,8.73
2023-01-20T09:00:16.338Z,8.73
2023-01-20T09:02:42.851Z,9.67
2023-01-20T09:05:10.318Z,9.10
2023-01-20T09:07:36.897Z,7.93
2023-01-20T09:10:05.284Z,8.27
2023-01-20T09:12:32.687Z,8.20
2023-01-20T09:14:59.158Z,12.43
2023-01-20T09:17:25.642Z,7.27
2023-01-20T09:19:52.111Z,8.33
2023-01-20T09:22:18.484Z,9.93
2023-01-20T09:24:44.869Z,7.90
2023-01-20T09:27:11.269Z,9.37
2023-01-20T09:29:38.427Z,8.50
2023-01-20T09:32:08.189Z,8.30
2023-01-20T09:34:34.876Z,8.40
2023-01-20T09:37:17.060Z,8.97
2023-01-20T09:40:01.414Z,12.67
2023-01-20T09:42:55.856Z,8.33
2023-01-20T09:45:27.415Z,7.40
2023-01-20T09:48:06.000Z,7.70
2023-01-20T09:51:04.770Z,8.97
2023-01-20T09:53:47.010Z,7.53
2023-01-20T09:56:16.826Z,7.50
2023-01-20T09:58:48.235Z,9.57
2023-01-20T10:01:19.703Z,7.97
2023-01-20T10:03:53.523Z,6.07
2023-01-20T10:06:25.669Z,6.23
2023-01-20T10:09:05.515Z,7.00
2023-01-20T10:11:38.006Z,6.87
2023-01-20T10:14:14.670Z,6.63
2023-01-20T10:16:48.139Z,7.87
2023-01-20T10:19:21.385Z,6.17
2023-01-20T10:21:52.827Z,16.97
2023-01-20T10:24:24.137Z,6.00
2023-01-20T10:26:54.964Z,6.67
2023-01-20T10:29:30.811Z,6.73
2023-01-20T10:32:00.576Z,5.77
2023-01-20T10:34:31.682Z,9.00
2023-01-20T10:37:03.959Z,7.60
2023-01-20T10:39:38.037Z,5.37
2023-01-20T10:42:10.327Z,5.17
2023-01-20T10:44:36.863Z,5.07
2023-01-20T10:47:16.244Z,4.13
2023-01-20T10:50:12.858Z,4.53
2023-01-20T10:52:52.704Z,4.30
2023-01-20T10:55:29.375Z,5.47
2023-01-20T10:58:01.683Z,5.20
2023-01-20T11:00:30.561Z,4.30
2023-01-20T11:03:00.016Z,4.80
2023-01-20T11:05:29.864Z,5.07
2023-01-20T11:07:58.931Z,6.00
2023-01-20T11:10:27.493Z,5.13
2023-01-20T11:12:56.303Z,4.97
2023-01-20T11:15:27.289Z,6.23
2023-01-20T11:18:21.502Z,5.37
2023-01-20T11:20:49.814Z,5.23
2023-01-20T11:23:22.747Z,5.90
2023-01-20T11:25:56.815Z,5.10
2023-01-20T11:28:28.680Z,5.30
2023-01-20T11:30:56.774Z,5.33
2023-01-20T11:33:26.000Z,4.73
2023-01-20T11:36:01.356Z,4.90
2023-01-20T11:38:29.908Z,5.63
2023-01-20T11:40:57.476Z,5.97
2023-01-20T11:43:29.518Z,11.43
2023-01-20T11:46:11.031Z,6.97
2023-01-20T11:48:38.668Z,7.03
2023-01-20T11:51:17.712Z,6.00
2023-01-20T11:53:46.024Z,5.73
2023-01-20T11:56:18.497Z,6.93
2023-01-20T11:58:54.757Z,6.40
2023-01-20T12:01:42.824Z,11.73
2023-01-20T12:04:44.247Z,6.63
2023-01-20T12:07:13.879Z,6.77
2023-01-20T12:09:45.076Z,6.60
2023-01-20T12:12:19.771Z,6.80
2023-01-20T12:14:51.594Z,6.90
2023-01-20T12:17:33.307Z,6.90
2023-01-20T12:20:20.200Z,7.20
2023-01-20T12:22:56.288Z,7.70
2023-01-20T12:25:27.595Z,8.47
2023-01-20T12:27:57.572Z,9.07
2023-01-20T12:30:37.597Z,10.33
2023-01-20T12:33:04.614Z,10.43
2023-01-20T12:35:47.767Z,11.63
2023-01-20T12:38:23.969Z,13.03
2023-01-20T12:40:54.291Z,10.37
2023-01-20T12:43:52.265Z,10.90
2023-01-20T12:46:35.751Z,11.47
2023-01-20T12:49:24.130Z,16.03
2023-01-20T12:52:04.587Z,11.50
2023-01-20T12:54:52.070Z,11.00
2023-01-20T12:57:35.936Z,10.57
2023-01-20T13:00:18.163Z,11.20
2023-01-20T13:03:03.575Z,15.40
2023-01-20T13:05:52.052Z,13.70
2023-01-20T13:08:23.982Z,12.93
2023-01-20T13:11:03.116Z,12.50
2023-01-20T13:13:55.508Z,12.67
2023-01-20T13:16:32.861Z,11.23
2023-01-20T13:19:08.081Z,12.50
2023-01-20T13:21:34.765Z,15.10
2023-01-20T13:24:05.144Z,13.80
2023-01-20T13:26:32.457Z,14.10
2023-01-20T13:28:59.875Z,14.67
2023-01-20T13:31:41.690Z,13.77
2023-01-20T13:34:34.635Z,12.50
2023-01-20T13:37:36.918Z,15.43
2023-01-20T13:40:20.674Z,13.13
2023-01-20T13:42:51.146Z,12.53
2023-01-20T13:45:23.699Z,12.40
2023-01-20T13:47:59.935Z,12.73
2023-01-20T13:50:29.931Z,14.23
2023-01-20T13:53:27.301Z,14.30
2023-01-20T13:56:27.554Z,16.77
2023-01-20T13:58:55.093Z,16.70
2023-01-20T14:01:21.651Z,14.07
2023-01-20T14:04:02.405Z,13.97
2023-01-20T14:06:29.101Z,14.17
2023-01-20T14:08:55.549Z,12.47
2023-01-20T14:11:23.509Z,14.57
2023-01-20T14:13:53.558Z,15.10
2023-01-20T14:16:22.669Z,15.80
2023-01-20T14:18:49.545Z,14.70
2023-01-20T14:21:20.610Z,14.40
2023-01-20T14:23:47.924Z,14.30
2023-01-20T14:26:20.523Z,13.90
2023-01-20T14:28:50.157Z,14.10
2023-01-20T14:31:35.671Z,14.07
2023-01-20T14:34:18.354Z,15.00
2023-01-20T14:36:45.734Z,14.77
2023-01-20T14:39:19.810Z,14.67
2023-01-20T14:41:47.840Z,15.13
2023-01-20T14:44:18.428Z,12.63
2023-01-20T14:46:47.265Z,15.90
2023-01-20T14:49:16.119Z,15.83
2023-01-20T14:51:43.166Z,14.87
2023-01-20T14:54:36.211Z,15.97
2023-01-20T14:57:21.209Z,14.63
2023-01-20T14:59:58.759Z,14.80
2023-01-20T15:02:29.293Z,16.10
2023-01-20T15:04:55.959Z,16.97
2023-01-20T15:07:24.202Z,16.93
2023-01-20T15:09:54.821Z,16.53
2023-01-20T15:12:38.738Z,18.40
2023-01-20T15:15:21.133Z,15.90
2023-01-20T15:18:13.261Z,20.30
2023-01-20T15:20:42.491Z,17.47
2023-01-20T15:23:15.738Z,20.57
2023-01-20T15:25:42.194Z,19.30
2023-01-20T15:28:21.939Z,19.63
2023-01-20T15:30:48.319Z,20.30
2023-01-20T15:33:15.405Z,16.83
2023-01-20T15:35:42.976Z,19.37
2023-01-20T15:38:11.456Z,16.80
2023-01-20T15:40:38.914Z,18.53
2023-01-20T15:43:13.735Z,18.57
2023-01-20T15:45:40.146Z,18.07
2023-01-20T15:48:12.835Z,18.30
2023-01-20T15:50:41.171Z,19.37
2023-01-20T15:53:07.671Z,19.67
2023-01-20T15:55:34.165Z,19.70
2023-01-20T15:58:00.563Z,20.57
2023-01-20T16:00:29.929Z,17.37
2023-01-20T16:02:56.489Z,22.13
2023-01-20T16:05:22.987Z,18.23
2023-01-20T16:07:50.058Z,19.47
2023-01-20T16:10:18.046Z,20.93
2023-01-20T16:12:45.064Z,20.03
2023-01-20T16:15:16.695Z,19.00
2023-01-20T16:17:43.423Z,21.83
2023-01-20T16:20:21.239Z,21.47
2023-01-20T16:22:47.694Z,20.23
2023-01-20T16:25:15.216Z,22.27
2023-01-20T16:27:41.981Z,19.73
2023-01-20T16:30:14.436Z,20.07
2023-01-20T16:32:41.048Z,20.40
2023-01-20T16:35:08.124Z,19.20
2023-01-20T16:37:34.491Z,20.70
2023-01-20T16:40:01.009Z,21.27
2023-01-20T16:42:28.144Z,21.93
2023-01-20T16:44:54.791Z,21.77
2023-01-20T16:47:21.300Z,20.13
2023-01-20T16:49:47.661Z,20.60
2023-01-20T16:52:14.144Z,20.50
2023-01-20T16:54:40.569Z,21.93
2023-01-20T16:57:07.888Z,20.07
2023-01-20T16:59:34.935Z,20.30
2023-01-20T17:02:01.431Z,20.17
2023-01-20T17:04:28.722Z,22.70
2023-01-20T17:06:55.148Z,20.27
2023-01-20T17:09:21.586Z,21.03
2023-01-20T17:11:47.992Z,19.77
2023-01-20T17:14:14.894Z,20.17
2023-01-20T17:16:42.076Z,20.80
2023-01-20T17:19:09.472Z,20.77
2023-01-20T17:21:37.947Z,18.67
2023-01-20T17:24:05.748Z,18.03
2023-01-20T17:26:32.643Z,20.23
2023-01-20T17:29:01.423Z,18.23
2023-01-20T17:31:27.937Z,19.00
2023-01-20T17:33:54.963Z,20.43
2023-01-20T17:36:21.385Z,19.43
2023-01-20T17:38:47.781Z,21.73
2023-01-20T17:41:14.731Z,20.30
2023-01-20T17:43:43.380Z,19.33
2023-01-20T17:46:14.686Z,20.87
2023-01-20T17:48:41.205Z,21.17
2023-01-20T17:51:12.594Z,20.53
2023-01-20T17:53:38.994Z,20.60
2023-01-20T17:56:12.239Z,20.83
2023-01-20T17:58:40.251Z,21.33
2023-01-20T18:01:10.828Z,22.03
2023-01-20T18:03:38.353Z,19.87
2023-01-20T18:06:05.423Z,23.93
2023-01-20T18:08:32.529Z,22.33
2023-01-20T18:11:01.803Z,22.77
2023-01-20T18:13:28.213Z,22.43
2023-01-20T18:15:54.815Z,23.37
2023-01-20T18:18:21.248Z,21.87
2023-01-20T18:20:47.670Z,23.83
2023-01-20T18:23:14.072Z,22.50
2023-01-20T18:25:41.110Z,23.13
2023-01-20T18:28:07.501Z,20.57
2023-01-20T18:30:34.025Z,24.57
2023-01-20T18:33:00.449Z,19.50
2023-01-20T18:35:26.884Z,19.00
2023-01-20T18:37:53.283Z,21.07
2023-01-20T18:40:19.823Z,20.83
2023-01-20T18:42:47.293Z,22.10
2023-01-20T18:45:14.052Z,20.13
2023-01-20T18:47:40.470Z,18.93
2023-01-20T18:50:07.629Z,18.70
2023-01-20T18:52:34.158Z,19.80
2023-01-20T18:55:00.592Z,18.13
2023-01-20T18:57:27.093Z,20.87
2023-01-20T18:59:54.177Z,20.20
2023-01-20T19:02:20.594Z,20.37
2023-01-20T19:04:47.213Z,18.77
2023-01-20T19:07:16.964Z,19.97
2023-01-20T19:09:43.624Z,20.17
2023-01-20T19:12:10.157Z,16.37
2023-01-20T19:14:36.662Z,19.27
2023-01-20T19:17:03.902Z,18.90
2023-01-20T19:19:30.499Z,18.43
2023-01-20T19:21:57.011Z,18.53
2023-01-20T19:24:28.061Z,18.17
2023-01-20T19:26:54.535Z,20.00
2023-01-20T19:29:21.349Z,17.17
2023-01-20T19:31:48.769Z,17.60
2023-01-20T19:34:15.857Z,20.50
2023-01-20T19:36:42.371Z,17.97
2023-01-20T19:39:08.905Z,20.77
2023-01-20T19:41:35.848Z,22.30
2023-01-20T19:44:05.789Z,18.57
2023-01-20T19:46:34.191Z,20.57
2023-01-20T19:49:01.754Z,22.47
2023-01-20T19:51:30.472Z,21.33
2023-01-20T19:53:59.058Z,20.10
2023-01-20T19:56:27.381Z,22.10
2023-01-20T19:58:54.585Z,21.63
2023-01-20T20:01:22.795Z,23.97
2023-01-20T20:03:50.235Z,21.37
2023-01-20T20:06:26.084Z,21.07
2023-01-20T20:08:58.266Z,20.97
2023-01-20T20:11:25.270Z,21.83
2023-01-20T20:13:54.405Z,20.83
2023-01-20T20:16:20.995Z,20.13
2023-01-20T20:18:49.839Z,21.60
2023-01-20T20:21:16.348Z,21.37
2023-01-20T20:23:42.872Z,21.33
2023-01-20T20:26:11.881Z,22.93
2023-01-20T20:28:38.527Z,21.73
2023-01-20T20:31:06.557Z,21.07
2023-01-20T20:33:33.793Z,23.40
2023-01-20T20:36:04.562Z,21.90
2023-01-20T20:38:31.112Z,21.73
2023-01-20T20:40:58.051Z,20.13
2023-01-20T20:43:25.591Z,18.23
2023-01-20T20:45:52.240Z,17.90
2023-01-20T20:48:18.877Z,22.03
2023-01-20T20:50:45.505Z,21.87
2023-01-20T20:53:12.194Z,21.40
2023-01-20T20:55:39.335Z,23.97
2023-01-20T20:58:05.970Z,25.37
2023-01-20T21:00:36.275Z,21.83
2023-01-20T21:03:03.091Z,20.30
2023-01-20T21:05:29.965Z,23.10
2023-01-20T21:07:56.376Z,22.37
2023-01-20T21:10:22.819Z,20.03
2023-01-20T21:12:49.298Z,21.23
2023-01-20T21:15:17.221Z,22.13
2023-01-20T21:17:44.327Z,21.97
2023-01-20T21:20:11.606Z,21.97
2023-01-20T21:22:38.129Z,22.00
2023-01-20T21:25:05.815Z,20.87
2023-01-20T21:27:32.459Z,23.30
2023-01-20T21:29:58.991Z,19.73
2023-01-20T21:32:25.474Z,23.30
2023-01-20T21:34:54.299Z,21.40
2023-01-20T21:37:20.822Z,20.60
2023-01-20T21:39:47.226Z,22.90
2023-01-20T21:42:13.727Z,23.60
2023-01-20T21:44:42.418Z,22.13
2023-01-20T21:47:09.732Z,19.73
2023-01-20T21:49:54.104Z,23.43
2023-01-20T21:52:44.608Z,20.27
2023-01-20T21:55:15.136Z,22.87
2023-01-20T21:57:42.407Z,25.97
2023-01-20T22:00:12.349Z,24.00
2023-01-20T22:02:39.806Z,24.03
2023-01-20T22:05:07.137Z,23.63
2023-01-20T22:07:34.362Z,21.10
2023-01-20T22:10:08.435Z,22.10
2023-01-20T22:12:34.955Z,20.33
2023-01-20T22:15:02.515Z,21.60
2023-01-20T22:17:29.422Z,20.43
2023-01-20T22:19:55.882Z,21.00
2023-01-20T22:22:22.821Z,24.60
2023-01-20T22:24:50.055Z,25.10
2023-01-20T22:27:16.472Z,26.37
2023-01-20T22:29:42.962Z,26.67
2023-01-20T22:32:09.434Z,25.50
2023-01-20T22:34:36.304Z,29.67
2023-01-20T22:37:02.785Z,25.47
2023-01-20T22:39:29.262Z,28.97
2023-01-20T22:41:56.533Z,27.60
2023-01-20T22:44:22.982Z,31.90
2023-01-20T22:46:49.425Z,28.27
2023-01-20T22:49:15.891Z,27.20
2023-01-20T22:51:42.302Z,25.90
2023-01-20T22:54:10.240Z,24.20
2023-01-20T22:56:38.144Z,25.40
2023-01-20T22:59:05.672Z,24.13
2023-01-20T23:01:34.570Z,27.13
2023-01-20T23:04:02.722Z,26.70
2023-01-20T23:06:31.789Z,29.23
2023-01-20T23:08:58.329Z,26.87
2023-01-20T23:11:24.804Z,26.77
2023-01-20T23:13:51.864Z,27.93
2023-01-20T23:16:21.428Z,27.63
2023-01-20T23:18:48.892Z,26.70
2023-01-20T23:21:15.684Z,26.27
2023-01-20T23:23:42.363Z,26.07
2023-01-20T23:26:12.800Z,26.57
2023-01-20T23:28:39.340Z,25.80
2023-01-20T23:31:08.228Z,27.37
2023-01-20T23:33:35.488Z,23.37
2023-01-20T23:36:06.821Z,22.57
2023-01-20T23:38:33.579Z,20.03
2023-01-20T23:41:00.448Z,21.90
2023-01-20T23:43:26.865Z,21.77
2023-01-20T23:45:57.142Z,21.90
2023-01-20T23:48:23.751Z,22.50
2023-01-20T23:50:55.471Z,21.87
2023-01-20T23:53:22.590Z,23.47
2023-01-20T23:55:49.026Z,22.03
2023-01-20T23:58:15.541Z,22.43
